createdAt,value
2022-08-12T00:00:00.244Z,20.47
2022-08-12T00:02:45.642Z,20.17
2022-08-12T00:05:33.776Z,20.23
2022-08-12T00:08:32.996Z,20.04
2022-08-12T00:11:22.500Z,20.19
2022-08-12T00:14:07.843Z,20.01
2022-08-12T00:16:56.239Z,19.96
2022-08-12T00:19:41.538Z,19.73
2022-08-12T00:22:28.457Z,19.59
2022-08-12T00:25:17.897Z,19.84
2022-08-12T00:28:05.638Z,19.73
2022-08-12T00:30:51.506Z,19.70
2022-08-12T00:33:52.471Z,19.58
2022-08-12T00:36:43.800Z,19.35
2022-08-12T00:39:31.197Z,19.43
2022-08-12T00:42:10.732Z,19.37
2022-08-12T00:44:39.389Z,19.55
2022-08-12T00:47:07.871Z,19.49
2022-08-12T00:49:54.989Z,19.31
2022-08-12T00:52:23.976Z,19.34
2022-08-12T00:54:53.742Z,19.32
2022-08-12T00:57:24.472Z,19.17
2022-08-12T00:59:55.085Z,19.06
2022-08-12T01:02:25.568Z,18.94
2022-08-12T01:05:14.603Z,18.79
2022-08-12T01:08:01.558Z,18.68
2022-08-12T01:10:49.350Z,18.60
2022-08-12T01:13:20.518Z,18.46
2022-08-12T01:15:51.239Z,18.15
2022-08-12T01:18:20.877Z,18.24
2022-08-12T01:21:11.875Z,18.27
2022-08-12T01:24:30.305Z,18.15
2022-08-12T01:26:56.023Z,18.05
2022-08-12T01:29:26.815Z,17.88
2022-08-12T01:32:05.196Z,17.91
2022-08-12T01:34:37.361Z,18.00
2022-08-12T01:37:08.289Z,17.81
2022-08-12T01:40:34.980Z,17.88
2022-08-12T01:42:34.102Z,17.89
2022-08-12T01:45:03.732Z,17.98
2022-08-12T01:47:43.081Z,17.85
2022-08-12T01:50:22.280Z,17.98
2022-08-12T01:52:59.418Z,18.00
2022-08-12T01:55:33.311Z,18.07
2022-08-12T01:58:13.129Z,17.98
2022-08-12T02:00:55.480Z,17.95
2022-08-12T02:03:59.579Z,17.95
2022-08-12T02:06:50.964Z,17.70
2022-08-12T02:09:44.576Z,17.71
2022-08-12T02:12:28.518Z,17.68
2022-08-12T02:15:12.923Z,17.64
2022-08-12T02:17:55.397Z,17.69
2022-08-12T02:20:35.392Z,17.49
2022-08-12T02:23:21.318Z,17.52
2022-08-12T02:25:51.931Z,17.66
2022-08-12T02:28:19.839Z,17.61
2022-08-12T02:30:49.264Z,17.64
2022-08-12T02:33:19.024Z,17.57
2022-08-12T02:35:47.273Z,17.53
2022-08-12T02:38:15.134Z,17.47
2022-08-12T02:40:45.390Z,17.65
2022-08-12T02:43:20.570Z,17.61
2022-08-12T02:45:54.446Z,17.53
2022-08-12T02:48:27.898Z,17.35
2022-08-12T02:50:58.708Z,17.36
2022-08-12T02:53:28.248Z,17.24
2022-08-12T02:55:57.355Z,17.13
2022-08-12T02:58:33.414Z,17.12
2022-08-12T03:01:09.653Z,17.19
2022-08-12T03:03:39.212Z,17.02
2022-08-12T03:06:11.348Z,17.10
2022-08-12T03:08:42.237Z,17.16
2022-08-12T03:11:16.385Z,17.03
2022-08-12T03:13:52.149Z,16.91
2022-08-12T03:16:21.953Z,16.87
2022-08-12T03:18:51.525Z,16.87
2022-08-12T03:21:54.660Z,16.88
2022-08-12T03:24:09.183Z,16.84
2022-08-12T03:26:38.231Z,16.86
2022-08-12T03:29:07.626Z,16.87
2022-08-12T03:31:36.756Z,16.86
2022-08-12T03:34:07.737Z,16.94
2022-08-12T03:36:37.626Z,16.78
2022-08-12T03:39:36.294Z,16.72
2022-08-12T03:42:17.196Z,16.71
2022-08-12T03:45:11.572Z,16.68
2022-08-12T03:48:04.665Z,16.71
2022-08-12T03:50:50.974Z,16.72
2022-08-12T03:53:43.314Z,16.80
2022-08-12T03:56:28.626Z,16.83
2022-08-12T03:59:14.339Z,16.66
2022-08-12T04:01:42.623Z,16.61
2022-08-12T04:04:11.826Z,16.55
2022-08-12T04:06:44.828Z,16.44
2022-08-12T04:09:14.834Z,16.40
2022-08-12T04:12:03.386Z,16.41
2022-08-12T04:14:31.305Z,16.47
2022-08-12T04:16:59.559Z,16.30
2022-08-12T04:19:29.863Z,16.35
2022-08-12T04:22:01.114Z,16.31
2022-08-12T04:24:34.937Z,16.18
2022-08-12T04:27:03.685Z,16.15
2022-08-12T04:30:30.778Z,16.28
2022-08-12T04:32:19.494Z,16.25
2022-08-12T04:34:48.634Z,16.34
2022-08-12T04:37:17.007Z,16.36
2022-08-12T04:39:46.861Z,16.55
2022-08-12T04:42:14.737Z,16.55
2022-08-12T04:44:43.473Z,16.82
2022-08-12T04:47:12.772Z,16.90
2022-08-12T04:49:41.119Z,17.01
2022-08-12T04:52:10.861Z,16.94
2022-08-12T04:54:38.733Z,17.00
2022-08-12T04:57:09.461Z,17.10
2022-08-12T04:59:47.005Z,17.26
2022-08-12T05:02:20.526Z,17.42
2022-08-12T05:04:52.143Z,17.46
2022-08-12T05:07:24.303Z,17.51
2022-08-12T05:10:01.918Z,17.51
2022-08-12T05:12:36.483Z,17.58
2022-08-12T05:15:19.811Z,17.64
2022-08-12T05:17:53.473Z,17.67
2022-08-12T05:20:22.558Z,17.80
2022-08-12T05:22:53.153Z,17.91
2022-08-12T05:25:25.476Z,18.04
2022-08-12T05:27:55.494Z,18.11
2022-08-12T05:30:27.243Z,18.01
2022-08-12T05:32:59.803Z,18.26
2022-08-12T05:35:28.712Z,18.35
2022-08-12T05:38:11.698Z,18.33
2022-08-12T05:40:39.573Z,18.50
2022-08-12T05:43:07.837Z,18.59
2022-08-12T05:45:35.554Z,18.50
2022-08-12T05:48:03.632Z,18.77
2022-08-12T05:50:31.332Z,18.85
2022-08-12T05:53:00.441Z,18.95
2022-08-12T05:55:31.344Z,19.03
2022-08-12T05:57:59.447Z,19.16
2022-08-12T06:00:29.253Z,19.27
2022-08-12T06:03:01.142Z,19.27
2022-08-12T06:05:29.587Z,19.46
2022-08-12T06:08:01.775Z,19.65
2022-08-12T06:10:33.170Z,19.69
2022-08-12T06:13:02.447Z,19.72
2022-08-12T06:15:31.591Z,19.90
2022-08-12T06:18:05.283Z,20.16
2022-08-12T06:20:41.758Z,20.42
2022-08-12T06:23:11.922Z,20.58
2022-08-12T06:25:42.071Z,20.43
2022-08-12T06:28:17.369Z,20.50
2022-08-12T06:30:57.238Z,20.62
2022-08-12T06:33:55.723Z,20.43
2022-08-12T06:36:25.030Z,20.92
2022-08-12T06:38:58.453Z,20.92
2022-08-12T06:42:10.783Z,21.10
2022-08-12T06:44:32.888Z,20.85
2022-08-12T06:47:00.937Z,21.24
2022-08-12T06:49:35.699Z,20.98
2022-08-12T06:52:04.382Z,21.16
2022-08-12T06:54:33.229Z,21.65
2022-08-12T06:57:57.327Z,21.56
2022-08-12T06:59:51.024Z,21.75
2022-08-12T07:02:19.712Z,21.88
2022-08-12T07:04:48.125Z,22.22
2022-08-12T07:07:16.127Z,22.35
2022-08-12T07:10:05.372Z,22.11
2022-08-12T07:12:33.153Z,22.39
2022-08-12T07:15:02.032Z,22.86
2022-08-12T07:17:35.916Z,23.10
2022-08-12T07:20:05.560Z,22.58
2022-08-12T07:22:34.046Z,22.84
2022-08-12T07:25:18.633Z,22.85
2022-08-12T07:27:47.795Z,23.52
2022-08-12T07:30:15.549Z,23.51
2022-08-12T07:32:51.451Z,22.81
2022-08-12T07:35:20.253Z,23.40
2022-08-12T07:37:50.389Z,23.85
2022-08-12T07:40:18.877Z,24.14
2022-08-12T07:42:47.987Z,23.81
2022-08-12T07:45:15.995Z,24.03
2022-08-12T07:47:44.780Z,24.78
2022-08-12T07:50:13.863Z,23.89
2022-08-12T07:52:46.942Z,24.50
2022-08-12T07:55:16.607Z,24.41
2022-08-12T07:57:55.836Z,24.61
2022-08-12T08:00:24.269Z,25.79
2022-08-12T08:02:53.366Z,25.86
2022-08-12T08:05:22.044Z,25.85
2022-08-12T08:07:50.022Z,26.09
2022-08-12T08:10:18.126Z,25.77
2022-08-12T08:12:53.546Z,25.29
2022-08-12T08:15:44.540Z,26.55
2022-08-12T08:18:18.425Z,26.32
2022-08-12T08:20:55.427Z,26.22
2022-08-12T08:23:29.323Z,27.07
2022-08-12T08:26:03.088Z,26.95
2022-08-12T08:28:36.466Z,27.82
2022-08-12T08:31:05.767Z,27.43
2022-08-12T08:34:09.652Z,27.31
2022-08-12T08:36:23.511Z,27.51
2022-08-12T08:38:58.447Z,27.40
2022-08-12T08:42:15.461Z,27.34
2022-08-12T08:44:32.153Z,27.98
2022-08-12T08:47:03.446Z,27.95
2022-08-12T08:49:31.170Z,27.50
2022-08-12T08:51:59.012Z,28.53
2022-08-12T08:54:26.770Z,28.63
2022-08-12T08:56:54.483Z,29.07
2022-08-12T08:59:22.408Z,27.63
2022-08-12T09:01:50.274Z,28.65
2022-08-12T09:05:12.984Z,28.49
2022-08-12T09:13:02.510Z,28.16
2022-08-12T09:15:36.317Z,29.21
2022-08-12T09:18:08.479Z,29.64
2022-08-12T09:20:40.114Z,28.87
2022-08-12T09:23:57.600Z,29.26
2022-08-12T09:28:53.272Z,28.53
2022-08-12T09:32:07.944Z,28.75
2022-08-12T09:34:27.409Z,29.05
2022-08-12T09:37:02.908Z,29.77
2022-08-12T09:40:05.290Z,29.35
2022-08-12T09:43:11.249Z,29.31
2022-08-12T09:46:20.283Z,29.17
2022-08-12T09:48:36.104Z,30.64
2022-08-12T09:51:17.097Z,29.70
2022-08-12T09:54:09.226Z,29.44
2022-08-12T09:57:02.283Z,30.38
2022-08-12T10:00:17.031Z,29.52
2022-08-12T10:02:42.801Z,29.87
2022-08-12T10:05:04.437Z,29.56
2022-08-12T10:07:39.530Z,29.54
2022-08-12T10:10:24.897Z,30.43
2022-08-12T10:13:13.237Z,29.83
2022-08-12T10:16:02.145Z,30.06
2022-08-12T10:18:35.284Z,29.34
2022-08-12T10:21:07.321Z,29.78
2022-08-12T10:23:39.962Z,30.36
2022-08-12T10:26:38.736Z,30.65
2022-08-12T10:30:38.204Z,30.49
2022-08-12T10:32:20.949Z,31.05
2022-08-12T10:34:53.726Z,31.27
2022-08-12T10:38:38.064Z,30.40
2022-08-12T10:40:19.883Z,30.33
2022-08-12T10:43:07.969Z,31.38
2022-08-12T10:45:38.403Z,31.44
2022-08-12T10:48:19.487Z,31.80
2022-08-12T10:51:02.327Z,31.89
2022-08-12T10:53:45.864Z,32.66
2022-08-12T10:56:15.369Z,31.82
2022-08-12T10:58:46.855Z,31.73
2022-08-12T11:01:49.419Z,31.43
2022-08-12T11:04:27.575Z,31.59
2022-08-12T11:07:09.187Z,30.45
2022-08-12T11:10:00.427Z,31.86
2022-08-12T11:12:56.184Z,31.95
2022-08-12T11:15:32.657Z,32.64
2022-08-12T11:18:03.390Z,33.08
2022-08-12T11:20:31.483Z,32.19
2022-08-12T11:23:04.187Z,33.65
2022-08-12T11:25:57.884Z,32.62
2022-08-12T11:28:34.036Z,33.19
2022-08-12T11:31:05.004Z,32.58
2022-08-12T11:34:06.138Z,32.71
2022-08-12T11:36:22.359Z,34.03
2022-08-12T11:38:51.333Z,34.14
2022-08-12T11:41:31.018Z,35.58
2022-08-12T11:44:30.639Z,34.88
2022-08-12T11:46:51.191Z,34.81
2022-08-12T11:49:31.305Z,36.58
2022-08-12T11:52:01.881Z,37.02
2022-08-12T11:54:30.285Z,37.98
2022-08-12T11:56:59.393Z,36.16
2022-08-12T12:02:20.520Z,37.33
2022-08-12T12:04:52.704Z,36.89
2022-08-12T12:07:33.972Z,35.69
2022-08-12T12:10:12.529Z,37.12
2022-08-12T12:12:40.500Z,38.45
2022-08-12T12:15:10.531Z,38.66
2022-08-12T12:17:43.373Z,36.50
2022-08-12T12:20:12.778Z,33.98
2022-08-12T12:22:44.181Z,34.73
2022-08-12T12:25:14.042Z,35.94
2022-08-12T12:28:05.407Z,37.10
2022-08-12T12:30:34.855Z,35.87
2022-08-12T12:33:05.041Z,34.95
2022-08-12T12:36:19.812Z,35.07
2022-08-12T12:38:25.156Z,35.71
2022-08-12T12:40:53.637Z,36.88
2022-08-12T12:43:28.898Z,35.61
2022-08-12T12:46:10.608Z,34.55
2022-08-12T12:48:44.098Z,37.09
2022-08-12T12:51:49.525Z,36.71
2022-08-12T12:54:08.667Z,35.63
2022-08-12T12:56:42.265Z,36.88
2022-08-12T12:59:56.176Z,35.86
2022-08-12T13:02:08.189Z,37.91
2022-08-12T13:04:38.115Z,38.50
2022-08-12T13:07:06.568Z,35.37
2022-08-12T13:09:36.178Z,37.74
2022-08-12T13:12:08.222Z,36.26
2022-08-12T13:14:39.641Z,37.55
2022-08-12T13:17:09.611Z,37.93
2022-08-12T13:19:45.215Z,37.00
2022-08-12T13:22:20.688Z,38.35
2022-08-12T13:24:52.223Z,36.60
2022-08-12T13:27:28.301Z,38.65
2022-08-12T13:30:06.882Z,36.76
2022-08-12T13:32:39.302Z,35.59
2022-08-12T13:35:19.221Z,36.89
2022-08-12T13:37:55.270Z,33.73
2022-08-12T13:40:24.656Z,35.80
2022-08-12T13:42:53.293Z,36.12
2022-08-12T13:45:21.199Z,36.15
2022-08-12T13:47:55.319Z,36.56
2022-08-12T13:50:29.792Z,36.57
2022-08-12T13:52:57.794Z,36.43
2022-08-12T13:55:30.925Z,34.61
2022-08-12T13:58:00.144Z,35.00
2022-08-12T14:00:38.424Z,35.86
2022-08-12T14:03:07.401Z,35.78
2022-08-12T14:05:39.774Z,34.43
2022-08-12T14:08:08.964Z,36.20
2022-08-12T14:10:50.831Z,37.11
2022-08-12T14:14:03.800Z,36.63
2022-08-12T14:16:15.287Z,37.61
2022-08-12T14:19:03.091Z,35.19
2022-08-12T14:21:59.240Z,35.88
2022-08-12T14:24:21.304Z,35.69
2022-08-12T14:26:55.026Z,32.85
2022-08-12T14:29:56.062Z,33.75
2022-08-12T14:32:16.671Z,34.13
2022-08-12T14:34:44.714Z,36.80
2022-08-12T14:37:54.837Z,36.29
2022-08-12T14:40:02.571Z,34.38
2022-08-12T14:42:30.389Z,35.17
2022-08-12T14:44:59.657Z,34.59
2022-08-12T14:47:34.966Z,33.79
2022-08-12T14:50:42.049Z,34.44
2022-08-12T14:58:32.048Z,34.24
2022-08-12T15:01:21.445Z,34.34
2022-08-12T15:03:57.006Z,33.92
2022-08-12T15:06:44.717Z,35.17
2022-08-12T15:09:16.377Z,33.97
2022-08-12T15:11:48.945Z,35.03
2022-08-12T15:14:25.520Z,34.37
2022-08-12T15:16:53.904Z,34.85
2022-08-12T15:20:11.162Z,33.46
2022-08-12T15:22:38.456Z,33.53
2022-08-12T15:24:58.630Z,32.30
2022-08-12T15:27:31.638Z,32.77
2022-08-12T15:29:59.738Z,32.72
2022-08-12T15:32:31.769Z,31.24
2022-08-12T15:35:00.532Z,31.07
2022-08-12T15:37:58.964Z,30.03
2022-08-12T15:40:30.053Z,29.08
2022-08-12T15:42:59.651Z,29.05
2022-08-12T15:45:27.742Z,28.93
2022-08-12T15:48:16.258Z,28.78
2022-08-12T15:50:45.461Z,28.13
2022-08-12T15:53:16.373Z,28.50
2022-08-12T15:55:46.200Z,28.38
2022-08-12T15:58:16.807Z,28.23
2022-08-12T16:00:45.337Z,27.88
2022-08-12T16:03:14.303Z,28.38
2022-08-12T16:06:11.147Z,28.28
2022-08-12T16:08:36.433Z,28.27
2022-08-12T16:11:07.209Z,27.99
2022-08-12T16:13:44.275Z,28.04
2022-08-12T16:16:24.152Z,28.02
2022-08-12T16:18:56.370Z,27.59
2022-08-12T16:21:52.558Z,27.94
2022-08-12T16:24:12.580Z,28.06
2022-08-12T16:26:44.991Z,27.65
2022-08-12T16:29:15.309Z,27.39
2022-08-12T16:31:44.652Z,27.28
2022-08-12T16:34:26.169Z,27.23
2022-08-12T16:37:07.718Z,27.13
2022-08-12T16:40:01.217Z,27.03
2022-08-12T16:42:28.272Z,27.25
2022-08-12T16:44:57.339Z,26.85
2022-08-12T16:47:27.250Z,26.94
2022-08-12T16:49:57.717Z,27.05
2022-08-12T16:52:25.879Z,26.87
2022-08-12T16:54:54.811Z,26.79
2022-08-12T16:57:35.129Z,26.79
2022-08-12T17:00:07.065Z,26.95
2022-08-12T17:02:36.796Z,26.74
2022-08-12T17:05:06.986Z,26.60
2022-08-12T17:07:43.035Z,26.43
2022-08-12T17:10:13.959Z,26.32
2022-08-12T17:12:46.372Z,26.14
2022-08-12T17:15:25.667Z,26.10
2022-08-12T17:18:39.749Z,26.10
2022-08-12T17:20:57.660Z,26.04
2022-08-12T17:23:48.126Z,25.86
2022-08-12T17:26:22.278Z,25.84
2022-08-12T17:28:52.266Z,25.92
2022-08-12T17:32:01.372Z,25.97
2022-08-12T17:34:30.446Z,25.83
2022-08-12T17:37:01.521Z,25.76
2022-08-12T17:40:15.359Z,25.68
2022-08-12T17:42:32.496Z,25.63
2022-08-12T17:45:17.877Z,25.38
2022-08-12T17:48:04.501Z,25.50
2022-08-12T17:50:34.787Z,25.41
2022-08-12T17:53:03.576Z,25.43
2022-08-12T17:55:43.317Z,25.42
2022-08-12T17:58:15.827Z,25.41
2022-08-12T18:00:45.400Z,25.36
2022-08-12T18:04:04.363Z,25.30
2022-08-12T18:06:14.033Z,25.17
2022-08-12T18:08:53.418Z,25.15
2022-08-12T18:12:03.698Z,25.15
2022-08-12T18:14:28.760Z,25.00
2022-08-12T18:17:00.357Z,24.92
2022-08-12T18:20:04.186Z,24.89
2022-08-12T18:22:22.104Z,24.79
2022-08-12T18:26:12.636Z,24.68
2022-08-12T18:28:15.441Z,24.57
2022-08-12T18:30:52.992Z,24.49
2022-08-12T18:33:25.119Z,24.40
2022-08-12T18:35:55.705Z,24.26
2022-08-12T18:38:26.271Z,24.27
2022-08-12T18:41:21.679Z,24.23
2022-08-12T18:43:59.184Z,24.21
2022-08-12T18:46:33.158Z,24.01
2022-08-12T18:49:16.999Z,23.90
2022-08-12T18:52:01.903Z,23.81
2022-08-12T18:54:33.336Z,23.65
2022-08-12T18:57:04.976Z,23.41
2022-08-12T19:00:02.096Z,23.38
2022-08-12T19:02:23.098Z,23.27
2022-08-12T19:04:53.488Z,23.15
2022-08-12T19:07:29.914Z,22.94
2022-08-12T19:10:14.248Z,22.87
2022-08-12T19:13:00.592Z,22.82
2022-08-12T19:15:30.154Z,22.74
2022-08-12T19:18:02.761Z,22.60
2022-08-12T19:20:31.830Z,22.62
2022-08-12T19:23:07.812Z,22.22
2022-08-12T19:26:00.360Z,22.18
2022-08-12T19:28:35.492Z,21.90
2022-08-12T19:31:55.959Z,21.80
2022-08-12T19:37:26.632Z,21.78
2022-08-12T19:40:09.573Z,21.84
2022-08-12T19:42:57.800Z,21.72
2022-08-12T19:45:43.442Z,21.73
2022-08-12T19:48:18.492Z,21.51
2022-08-12T19:50:50.483Z,21.53
2022-08-12T19:53:23.070Z,21.43
2022-08-12T19:55:54.636Z,21.37
2022-08-12T19:58:24.185Z,21.25
2022-08-12T20:00:54.537Z,21.19
2022-08-12T20:03:39.525Z,21.08
2022-08-12T20:06:13.759Z,20.89
2022-08-12T20:08:49.182Z,20.77
2022-08-12T20:12:12.606Z,20.70
2022-08-12T20:14:17.711Z,20.57
2022-08-12T20:16:51.971Z,20.37
2022-08-12T20:19:21.196Z,20.31
2022-08-12T20:21:51.411Z,20.05
2022-08-12T20:24:23.277Z,20.02
2022-08-12T20:27:00.329Z,20.03
2022-08-12T20:29:35.535Z,20.06
2022-08-12T20:32:06.016Z,19.90
2022-08-12T20:34:38.950Z,19.90
2022-08-12T20:37:07.081Z,19.90
2022-08-12T20:39:55.839Z,19.70
2022-08-12T20:42:31.229Z,19.48
2022-08-12T20:44:59.665Z,19.50
2022-08-12T20:47:41.963Z,19.52
2022-08-12T20:50:14.094Z,19.46
2022-08-12T20:52:45.425Z,19.44
2022-08-12T20:55:15.648Z,19.40
2022-08-12T20:58:02.974Z,19.24
2022-08-12T21:00:33.237Z,19.28
2022-08-12T21:03:20.967Z,19.27
2022-08-12T21:06:10.322Z,19.16
2022-08-12T21:08:41.623Z,19.10
2022-08-12T21:11:10.552Z,19.13
2022-08-12T21:13:41.931Z,19.24
2022-08-12T21:16:10.368Z,19.25
2022-08-12T21:18:38.594Z,19.21
2022-08-12T21:21:24.109Z,19.22
2022-08-12T21:23:52.303Z,19.19
2022-08-12T21:26:24.158Z,19.29
2022-08-12T21:29:01.266Z,18.95
2022-08-12T21:32:39.665Z,19.04
2022-08-12T21:34:26.045Z,18.97
2022-08-12T21:37:01.599Z,19.01
2022-08-12T21:39:39.755Z,18.77
2022-08-12T21:42:20.903Z,18.77
2022-08-12T21:45:47.732Z,18.83
2022-08-12T21:47:45.520Z,18.87
2022-08-12T21:50:15.330Z,18.66
2022-08-12T21:52:43.177Z,18.52
2022-08-12T21:55:18.984Z,18.51
2022-08-12T21:57:53.825Z,18.42
2022-08-12T22:00:33.205Z,18.50
2022-08-12T22:04:03.565Z,18.34
2022-08-12T22:06:30.966Z,18.46
2022-08-12T22:09:17.262Z,18.56
2022-08-12T22:11:56.964Z,18.47
2022-08-12T22:14:28.403Z,18.44
2022-08-12T22:17:00.627Z,18.45
2022-08-12T22:19:28.648Z,18.37
2022-08-12T22:21:58.798Z,18.52
2022-08-12T22:24:31.910Z,18.34
2022-08-12T22:27:17.974Z,18.35
2022-08-12T22:30:05.986Z,18.39
2022-08-12T22:32:41.709Z,18.38
2022-08-12T22:35:29.156Z,18.37
2022-08-12T22:37:57.238Z,18.26
2022-08-12T22:40:25.182Z,18.21
2022-08-12T22:43:14.570Z,18.10
2022-08-12T22:46:00.839Z,18.16
2022-08-12T22:48:30.699Z,17.98
2022-08-12T22:50:59.328Z,17.96
2022-08-12T22:53:36.246Z,17.89
2022-08-12T22:56:06.719Z,17.82
2022-08-12T22:58:36.604Z,17.96
2022-08-12T23:01:10.736Z,17.96
2022-08-12T23:03:48.087Z,17.87
2022-08-12T23:06:21.295Z,17.94
2022-08-12T23:08:49.881Z,17.82
2022-08-12T23:11:23.340Z,17.83
2022-08-12T23:13:55.924Z,17.77
2022-08-12T23:16:28.799Z,17.76
2022-08-12T23:19:10.639Z,17.72
2022-08-12T23:22:03.682Z,17.86
2022-08-12T23:24:41.006Z,17.90
2022-08-12T23:27:44.450Z,17.75
2022-08-12T23:30:18.755Z,17.58
2022-08-12T23:32:54.875Z,17.64
2022-08-12T23:35:45.919Z,17.71
2022-08-12T23:38:30.960Z,17.67
2022-08-12T23:41:01.378Z,17.70
2022-08-12T23:43:39.472Z,17.43
2022-08-12T23:46:10.190Z,17.33
2022-08-12T23:48:38.882Z,17.47
2022-08-12T23:51:22.040Z,17.50
2022-08-12T23:53:54.967Z,17.49
2022-08-12T23:56:24.594Z,17.54
2022-08-12T23:58:55.308Z,17.46
